createdAt,value
2023-03-27T00:01:34.163Z,99484.59
2023-03-27T00:04:35.913Z,99489.81
2023-03-27T00:07:41.083Z,99506.31
2023-03-27T00:10:42.865Z,99508.06
2023-03-27T00:13:49.898Z,99515.69
2023-03-27T00:16:52.811Z,99514.31
2023-03-27T00:19:54.821Z,99529.31
2023-03-27T00:22:56.962Z,99534.09
2023-03-27T00:25:59.374Z,99533.16
2023-03-27T00:29:02.627Z,99543.13
2023-03-27T00:32:04.712Z,99545.63
2023-03-27T00:35:09.340Z,99557.06
2023-03-27T00:38:13.448Z,99557.91
2023-03-27T00:41:15.197Z,99571.16
2023-03-27T00:44:23.922Z,99580.13
2023-03-27T00:47:33.018Z,99583.66
2023-03-27T00:50:38.282Z,99590.09
2023-03-27T00:53:41.242Z,99591.22
2023-03-27T00:56:44.496Z,99596.72
2023-03-27T00:59:50.293Z,99606.72
2023-03-27T01:02:52.213Z,99614.69
2023-03-27T01:05:55.960Z,99629.13
2023-03-27T01:08:59.098Z,99620.97
2023-03-27T01:12:21.527Z,99641.19
2023-03-27T01:15:37.715Z,99630.56
2023-03-27T01:18:55.259Z,99649.97
2023-03-27T01:22:19.641Z,99653.66
2023-03-27T01:25:51.409Z,99659.44
2023-03-27T01:28:59.473Z,99653.66
2023-03-27T01:32:28.082Z,99665.81
2023-03-27T01:35:55.929Z,99664.22
2023-03-27T01:39:23.155Z,99670.50
2023-03-27T01:42:30.990Z,99679.56
2023-03-27T01:45:40.933Z,99688.94
2023-03-27T01:48:48.026Z,99697.97
2023-03-27T01:51:56.360Z,99704.22
2023-03-27T01:55:05.001Z,99708.78
2023-03-27T01:58:14.682Z,99724.53
2023-03-27T02:01:22.440Z,99727.38
2023-03-27T02:04:28.723Z,99726.56
2023-03-27T02:07:41.380Z,99728.91
2023-03-27T02:10:50.056Z,99732.84
2023-03-27T02:13:55.853Z,99733.66
2023-03-27T02:17:00.408Z,99738.69
2023-03-27T02:20:11.788Z,99740.34
2023-03-27T02:23:17.024Z,99744.94
2023-03-27T02:26:20.955Z,99763.16
2023-03-27T02:29:36.157Z,99778.59
2023-03-27T02:32:49.178Z,99782.13
2023-03-27T02:35:58.359Z,99797.34
2023-03-27T02:39:03.579Z,99808.16
2023-03-27T02:42:15.573Z,99804.50
2023-03-27T02:45:31.446Z,99811.38
2023-03-27T02:48:40.358Z,99814.06
2023-03-27T02:51:45.651Z,99839.59
2023-03-27T02:54:53.504Z,99852.56
2023-03-27T02:58:02.273Z,99855.00
2023-03-27T03:01:09.365Z,99869.97
2023-03-27T03:04:41.696Z,99874.78
2023-03-27T03:07:49.074Z,99883.34
2023-03-27T03:10:51.125Z,99888.75
2023-03-27T03:13:54.353Z,99897.81
2023-03-27T03:16:55.994Z,99902.88
2023-03-27T03:19:57.794Z,99910.06
2023-03-27T03:23:00.606Z,99918.44
2023-03-27T03:26:02.783Z,99922.91
2023-03-27T03:29:16.018Z,99928.28
2023-03-27T03:32:26.491Z,99931.06
2023-03-27T03:35:31.783Z,99944.56
2023-03-27T03:38:38.191Z,99955.84
2023-03-27T03:41:46.363Z,99965.09
2023-03-27T03:44:52.585Z,99964.72
2023-03-27T03:47:57.052Z,99979.13
2023-03-27T03:50:59.639Z,99981.38
2023-03-27T03:54:02.587Z,99988.22
2023-03-27T03:57:04.974Z,99994.50
2023-03-27T04:00:14.180Z,100008.75
2023-03-27T04:03:18.695Z,100012.81
2023-03-27T04:06:21.514Z,100022.06
2023-03-27T04:09:23.704Z,100038.34
2023-03-27T04:12:47.088Z,100040.94
2023-03-27T04:15:55.465Z,100046.81
2023-03-27T04:19:12.860Z,100061.41
2023-03-27T04:22:17.235Z,100071.41
2023-03-27T04:25:19.347Z,100079.72
2023-03-27T04:28:22.615Z,100087.81
2023-03-27T04:31:36.039Z,100084.25
2023-03-27T04:34:56.311Z,100085.50
2023-03-27T04:38:02.706Z,100095.63
2023-03-27T04:41:30.946Z,100106.00
2023-03-27T04:44:34.934Z,100117.66
2023-03-27T04:47:38.293Z,100116.53
2023-03-27T04:50:40.977Z,100121.69
2023-03-27T04:53:45.281Z,100123.13
2023-03-27T04:56:47.160Z,100139.00
2023-03-27T04:59:48.844Z,100144.50
2023-03-27T05:03:10.604Z,100150.63
2023-03-27T05:06:28.992Z,100170.81
2023-03-27T05:09:30.996Z,100170.22
2023-03-27T05:12:55.204Z,100180.06
2023-03-27T05:16:02.602Z,100190.75
2023-03-27T05:19:17.212Z,100202.75
2023-03-27T05:22:25.047Z,100200.38
2023-03-27T05:25:35.847Z,100210.72
2023-03-27T05:28:41.166Z,100219.97
2023-03-27T05:31:48.247Z,100222.56
2023-03-27T05:35:23.787Z,100243.25
2023-03-27T05:38:27.591Z,100246.03
2023-03-27T05:41:51.071Z,100253.28
2023-03-27T05:44:56.916Z,100260.91
2023-03-27T05:48:01.648Z,100263.47
2023-03-27T05:51:09.356Z,100273.69
2023-03-27T05:54:11.733Z,100273.50
2023-03-27T05:57:24.684Z,100279.09
2023-03-27T06:00:34.233Z,100291.38
2023-03-27T06:03:38.807Z,100299.56
2023-03-27T06:06:49.350Z,100308.44
2023-03-27T06:09:55.066Z,100314.56
2023-03-27T06:13:15.478Z,100330.63
2023-03-27T06:16:31.180Z,100331.94
2023-03-27T06:19:46.073Z,100345.75
2023-03-27T06:22:51.678Z,100358.31
2023-03-27T06:25:57.378Z,100365.50
2023-03-27T06:29:00.761Z,100375.91
2023-03-27T06:32:11.785Z,100385.72
2023-03-27T06:35:20.030Z,100394.94
2023-03-27T06:38:32.908Z,100407.31
2023-03-27T06:41:35.940Z,100407.53
2023-03-27T06:44:53.086Z,100409.97
2023-03-27T06:48:22.632Z,100417.59
2023-03-27T06:51:28.227Z,100425.22
2023-03-27T06:54:31.534Z,100427.91
2023-03-27T06:57:33.785Z,100429.84
2023-03-27T07:00:39.089Z,100434.81
2023-03-27T07:03:56.903Z,100436.28
2023-03-27T07:07:17.344Z,100445.19
2023-03-27T07:10:22.404Z,100456.94
2023-03-27T07:13:24.229Z,100464.44
2023-03-27T07:16:26.130Z,100471.28
2023-03-27T07:19:28.356Z,100475.03
2023-03-27T07:22:42.941Z,100483.44
2023-03-27T07:25:59.324Z,100498.34
2023-03-27T07:29:21.688Z,100502.66
2023-03-27T07:32:36.634Z,100510.03
2023-03-27T07:35:42.224Z,100512.16
2023-03-27T07:39:10.119Z,100512.25
2023-03-27T07:42:14.321Z,100517.22
2023-03-27T07:45:42.425Z,100509.00
2023-03-27T07:48:44.537Z,100518.69
2023-03-27T07:51:51.542Z,100528.16
2023-03-27T07:54:53.298Z,100530.44
2023-03-27T07:58:02.769Z,100546.00
2023-03-27T08:01:08.193Z,100539.53
2023-03-27T08:04:11.553Z,100536.38
2023-03-27T08:07:16.258Z,100549.56
2023-03-27T08:10:18.620Z,100561.09
2023-03-27T08:13:31.420Z,100554.75
2023-03-27T08:16:36.989Z,100567.41
2023-03-27T08:19:38.781Z,100573.75
2023-03-27T08:22:41.447Z,100569.50
2023-03-27T08:26:02.187Z,100575.06
2023-03-27T08:29:12.106Z,100574.69
2023-03-27T08:32:13.960Z,100578.75
2023-03-27T08:35:19.024Z,100582.88
2023-03-27T08:38:26.658Z,100589.56
2023-03-27T08:41:51.603Z,100591.09
2023-03-27T08:45:08.334Z,100583.63
2023-03-27T08:48:22.232Z,100592.19
2023-03-27T08:51:28.565Z,100599.44
2023-03-27T08:54:32.829Z,100600.69
2023-03-27T08:57:35.038Z,100606.28
2023-03-27T09:00:56.505Z,100602.00
2023-03-27T09:04:05.223Z,100610.88
2023-03-27T09:07:15.581Z,100604.38
2023-03-27T09:10:42.032Z,100615.81
2023-03-27T09:14:12.744Z,100611.28
2023-03-27T09:17:24.757Z,100612.59
2023-03-27T09:20:37.462Z,100604.50
2023-03-27T09:23:42.844Z,100610.38
2023-03-27T09:27:21.123Z,100604.75
2023-03-27T09:30:38.676Z,100599.25
2023-03-27T09:33:54.717Z,100604.19
2023-03-27T09:36:59.169Z,100614.19
2023-03-27T09:40:02.014Z,100603.38
2023-03-27T09:43:12.554Z,100613.56
2023-03-27T09:46:20.050Z,100614.63
2023-03-27T09:49:31.567Z,100620.09
2023-03-27T09:52:38.205Z,100617.94
2023-03-27T09:55:54.837Z,100621.06
2023-03-27T09:59:00.322Z,100619.53
2023-03-27T10:02:16.773Z,100630.63
2023-03-27T10:05:22.039Z,100630.66
2023-03-27T10:08:37.755Z,100628.97
2023-03-27T10:11:48.076Z,100617.53
2023-03-27T10:14:58.114Z,100627.00
2023-03-27T10:18:07.298Z,100633.75
2023-03-27T10:21:18.614Z,100634.44
2023-03-27T10:24:30.650Z,100635.72
2023-03-27T10:27:52.826Z,100628.03
2023-03-27T10:31:26.255Z,100631.22
2023-03-27T10:34:36.884Z,100642.06
2023-03-27T10:38:00.821Z,100636.69
2023-03-27T10:41:28.407Z,100643.25
2023-03-27T10:44:31.519Z,100633.66
2023-03-27T10:47:34.106Z,100629.59
2023-03-27T10:50:42.022Z,100636.59
2023-03-27T10:53:53.613Z,100638.31
2023-03-27T10:57:08.548Z,100651.66
2023-03-27T11:00:19.927Z,100679.97
2023-03-27T11:03:35.439Z,100699.03
2023-03-27T11:06:44.799Z,100722.09
2023-03-27T11:09:58.737Z,100719.34
2023-03-27T11:13:14.538Z,100726.56
2023-03-27T11:16:23.226Z,100736.69
2023-03-27T11:19:49.804Z,100731.41
2023-03-27T11:23:04.483Z,100731.28
2023-03-27T11:26:34.252Z,100736.69
2023-03-27T11:29:44.221Z,100730.59
2023-03-27T11:32:52.791Z,100726.84
2023-03-27T11:36:05.233Z,100729.25
2023-03-27T11:39:24.933Z,100723.69
2023-03-27T11:42:31.161Z,100718.44
2023-03-27T11:45:41.973Z,100723.34
2023-03-27T11:49:05.907Z,100720.19
2023-03-27T11:52:22.072Z,100711.72
2023-03-27T11:55:32.664Z,100723.84
2023-03-27T11:58:42.677Z,100713.69
2023-03-27T12:01:49.031Z,100721.66
2023-03-27T12:04:55.766Z,100711.09
2023-03-27T12:08:20.544Z,100712.91
2023-03-27T12:11:26.641Z,100713.09
2023-03-27T12:14:41.175Z,100712.25
2023-03-27T12:18:01.164Z,100707.84
2023-03-27T12:21:24.002Z,100699.78
2023-03-27T12:24:57.126Z,100703.22
2023-03-27T12:28:41.087Z,100691.28
2023-03-27T12:32:13.258Z,100698.06
2023-03-27T12:35:22.189Z,100698.22
2023-03-27T12:38:29.084Z,100708.78
2023-03-27T12:41:35.703Z,100715.44
2023-03-27T12:45:13.283Z,100718.63
2023-03-27T12:48:20.565Z,100716.38
2023-03-27T12:51:43.629Z,100720.88
2023-03-27T12:55:28.438Z,100727.16
2023-03-27T12:58:35.017Z,100741.81
2023-03-27T13:02:42.100Z,100766.06
2023-03-27T13:06:07.282Z,100770.44
2023-03-27T13:09:31.801Z,100776.91
2023-03-27T13:13:10.566Z,100761.13
2023-03-27T13:16:34.063Z,100769.88
2023-03-27T13:19:50.679Z,100770.75
2023-03-27T13:23:10.545Z,100777.84
2023-03-27T13:26:28.739Z,100767.78
2023-03-27T13:29:35.127Z,100764.56
2023-03-27T13:33:09.862Z,100766.06
2023-03-27T13:36:17.476Z,100748.53
2023-03-27T13:39:24.596Z,100754.19
2023-03-27T13:42:37.409Z,100748.91
2023-03-27T13:45:47.192Z,100749.19
2023-03-27T13:49:38.337Z,100752.00
2023-03-27T13:53:12.819Z,100749.09
2023-03-27T13:56:55.496Z,100753.41
2023-03-27T14:00:42.663Z,100739.09
2023-03-27T14:04:07.199Z,100746.28
2023-03-27T14:07:56.277Z,100738.00
2023-03-27T14:11:25.476Z,100739.81
2023-03-27T14:14:47.265Z,100724.97
2023-03-27T14:18:30.085Z,100747.31
2023-03-27T14:21:49.881Z,100752.13
2023-03-27T14:24:57.642Z,100756.09
2023-03-27T14:28:31.829Z,100748.34
2023-03-27T14:31:38.881Z,100754.94
2023-03-27T14:34:54.523Z,100747.94
2023-03-27T14:38:21.910Z,100744.44
2023-03-27T14:41:25.518Z,100751.50
2023-03-27T14:44:32.606Z,100751.47
2023-03-27T14:47:40.905Z,100749.91
2023-03-27T14:50:46.433Z,100744.06
2023-03-27T14:53:51.380Z,100758.59
2023-03-27T14:57:04.237Z,100752.97
2023-03-27T15:00:17.639Z,100749.44
2023-03-27T15:03:27.893Z,100751.34
2023-03-27T15:06:36.678Z,100754.13
2023-03-27T15:09:41.850Z,100746.81
2023-03-27T15:12:59.348Z,100757.81
2023-03-27T15:16:04.166Z,100752.50
2023-03-27T15:19:17.232Z,100759.28
2023-03-27T15:22:24.501Z,100754.97
2023-03-27T15:25:34.608Z,100763.66
2023-03-27T15:28:40.851Z,100763.69
2023-03-27T15:31:45.845Z,100763.53
2023-03-27T15:34:57.944Z,100766.41
2023-03-27T15:38:00.793Z,100776.50
2023-03-27T15:41:41.216Z,100776.97
2023-03-27T15:44:43.055Z,100765.88
2023-03-27T15:48:04.484Z,100770.81
2023-03-27T15:51:10.620Z,100781.22
2023-03-27T15:54:28.251Z,100775.50
2023-03-27T15:57:30.517Z,100772.88
2023-03-27T16:00:32.648Z,100774.41
2023-03-27T16:03:35.071Z,100773.28
2023-03-27T16:06:40.958Z,100787.72
2023-03-27T16:09:50.448Z,100792.09
2023-03-27T16:12:56.319Z,100805.84
2023-03-27T16:16:03.189Z,100798.16
2023-03-27T16:19:13.469Z,100804.03
2023-03-27T16:22:22.503Z,100805.09
2023-03-27T16:25:27.676Z,100818.09
2023-03-27T16:28:31.192Z,100825.72
2023-03-27T16:31:33.011Z,100817.75
2023-03-27T16:34:35.298Z,100824.78
2023-03-27T16:37:39.358Z,100824.63
2023-03-27T16:40:44.991Z,100830.09
2023-03-27T16:43:48.930Z,100831.78
2023-03-27T16:46:51.237Z,100839.09
2023-03-27T16:50:03.450Z,100845.47
2023-03-27T16:53:13.458Z,100860.78
2023-03-27T16:56:16.148Z,100863.44
2023-03-27T16:59:18.574Z,100855.44
2023-03-27T17:02:20.991Z,100872.75
2023-03-27T17:05:25.527Z,100875.53
2023-03-27T17:08:32.722Z,100878.31
2023-03-27T17:11:34.839Z,100876.44
2023-03-27T17:14:58.283Z,100887.66
2023-03-27T17:18:00.040Z,100888.66
2023-03-27T17:21:09.624Z,100901.50
2023-03-27T17:24:14.590Z,100903.19
2023-03-27T17:27:17.338Z,100906.38
2023-03-27T17:30:30.563Z,100920.91
2023-03-27T17:33:39.785Z,100922.22
2023-03-27T17:36:47.433Z,100928.56
2023-03-27T17:39:58.349Z,100935.47
2023-03-27T17:43:00.643Z,100941.97
2023-03-27T17:46:03.080Z,100945.06
2023-03-27T17:49:05.788Z,100949.69
2023-03-27T17:52:11.263Z,100943.69
2023-03-27T17:55:17.089Z,100957.50
2023-03-27T17:58:21.959Z,100966.97
2023-03-27T18:01:24.355Z,100967.16
2023-03-27T18:04:26.479Z,100980.91
2023-03-27T18:07:31.688Z,100992.63
2023-03-27T18:10:35.699Z,100993.09
2023-03-27T18:13:38.375Z,100994.13
2023-03-27T18:16:40.251Z,100997.38
2023-03-27T18:19:42.688Z,100993.00
2023-03-27T18:22:45.970Z,100992.06
2023-03-27T18:25:49.569Z,101000.75
2023-03-27T18:28:54.372Z,101006.81
2023-03-27T18:31:56.205Z,101005.47
2023-03-27T18:34:58.018Z,101011.94
2023-03-27T18:37:59.826Z,101015.31
2023-03-27T18:41:03.219Z,101015.06
2023-03-27T18:44:05.562Z,101025.56
2023-03-27T18:47:07.584Z,101029.44
2023-03-27T18:50:15.956Z,101030.03
2023-03-27T18:53:18.502Z,101027.00
2023-03-27T18:56:21.812Z,101031.34
2023-03-27T18:59:24.102Z,101038.16
2023-03-27T19:02:26.089Z,101041.09
2023-03-27T19:05:28.590Z,101041.41
2023-03-27T19:08:30.639Z,101050.72
2023-03-27T19:11:33.671Z,101048.13
2023-03-27T19:14:41.660Z,101058.84
2023-03-27T19:18:06.808Z,101058.03
2023-03-27T19:21:28.681Z,101066.50
2023-03-27T19:24:43.873Z,101061.75
2023-03-27T19:27:49.877Z,101065.16
2023-03-27T19:30:53.126Z,101067.09
2023-03-27T19:33:54.883Z,101071.69
2023-03-27T19:36:56.629Z,101079.06
2023-03-27T19:40:02.053Z,101068.28
2023-03-27T19:43:06.262Z,101070.25
2023-03-27T19:46:16.270Z,101075.56
2023-03-27T19:49:18.997Z,101074.59
2023-03-27T19:52:42.461Z,101074.28
2023-03-27T19:55:44.254Z,101075.13
2023-03-27T19:58:47.896Z,101074.50
2023-03-27T20:01:50.633Z,101081.69
2023-03-27T20:04:52.635Z,101078.78
2023-03-27T20:07:54.501Z,101076.91
2023-03-27T20:10:56.419Z,101099.53
2023-03-27T20:13:59.613Z,101097.25
2023-03-27T20:17:01.464Z,101100.03
2023-03-27T20:20:05.840Z,101104.59
2023-03-27T20:23:07.724Z,101108.75
2023-03-27T20:26:09.356Z,101109.28
2023-03-27T20:29:17.349Z,101113.19
2023-03-27T20:32:20.258Z,101115.69
2023-03-27T20:35:24.633Z,101122.34
2023-03-27T20:38:31.546Z,101117.53
2023-03-27T20:41:34.372Z,101121.69
2023-03-27T20:44:37.897Z,101117.72
2023-03-27T20:47:43.019Z,101128.25
2023-03-27T20:50:48.957Z,101125.19
2023-03-27T20:53:55.457Z,101125.91
2023-03-27T20:56:57.178Z,101118.22
2023-03-27T21:00:00.570Z,101119.78
2023-03-27T21:03:02.462Z,101118.41
2023-03-27T21:06:06.743Z,101121.50
2023-03-27T21:09:09.377Z,101118.13
2023-03-27T21:12:12.347Z,101124.25
2023-03-27T21:15:18.435Z,101128.28
2023-03-27T21:18:21.197Z,101128.66
2023-03-27T21:21:23.095Z,101133.03
2023-03-27T21:24:24.995Z,101132.91
2023-03-27T21:27:26.695Z,101135.91
2023-03-27T21:30:47.202Z,101135.91
2023-03-27T21:33:50.245Z,101144.84
2023-03-27T21:36:52.157Z,101143.25
2023-03-27T21:39:53.887Z,101136.81
2023-03-27T21:42:55.808Z,101143.69
2023-03-27T21:46:01.788Z,101152.56
2023-03-27T21:49:03.684Z,101156.41
2023-03-27T21:52:06.051Z,101154.75
2023-03-27T21:55:08.631Z,101160.75
2023-03-27T21:58:10.527Z,101163.84
2023-03-27T22:01:14.987Z,101164.28
2023-03-27T22:04:16.859Z,101159.34
2023-03-27T22:07:18.566Z,101163.19
2023-03-27T22:10:20.331Z,101158.50
2023-03-27T22:13:22.458Z,101159.06
2023-03-27T22:16:25.851Z,101158.44
2023-03-27T22:19:27.721Z,101160.13
2023-03-27T22:22:29.439Z,101169.50
2023-03-27T22:25:31.104Z,101173.88
2023-03-27T22:28:32.787Z,101182.38
2023-03-27T22:31:36.682Z,101189.88
2023-03-27T22:34:39.095Z,101192.59
2023-03-27T22:37:41.086Z,101192.53
2023-03-27T22:40:43.097Z,101198.97
2023-03-27T22:43:46.721Z,101208.63
2023-03-27T22:46:52.839Z,101210.44
2023-03-27T22:49:54.754Z,101202.34
2023-03-27T22:52:56.528Z,101210.16
2023-03-27T22:55:59.686Z,101205.91
2023-03-27T22:59:01.757Z,101205.19
2023-03-27T23:02:04.748Z,101213.63
2023-03-27T23:05:07.471Z,101214.53
2023-03-27T23:08:10.090Z,101219.56
2023-03-27T23:11:13.174Z,101234.19
2023-03-27T23:14:15.020Z,101234.72
2023-03-27T23:17:18.323Z,101236.13
2023-03-27T23:20:20.134Z,101244.03
2023-03-27T23:23:22.678Z,101245.78
2023-03-27T23:26:24.333Z,101248.91
2023-03-27T23:29:26.088Z,101261.09
2023-03-27T23:32:29.971Z,101252.69
2023-03-27T23:35:34.290Z,101251.94
2023-03-27T23:38:39.691Z,101252.47
2023-03-27T23:41:41.679Z,101260.34
2023-03-27T23:44:43.553Z,101260.06
2023-03-27T23:47:46.684Z,101260.34
2023-03-27T23:50:48.571Z,101271.91
2023-03-27T23:53:50.550Z,101275.88
2023-03-27T23:56:52.459Z,101279.00
2023-03-27T23:59:54.187Z,101273.63
